sensor_id;sensor_type;location;lat;lon;timestamp;P1;durP1;ratioP1;P2;durP2;ratioP2
32032;SDS011;31720;52.638;9.216;2022-11-20T00:01:35;7.45;;;4.45;;
32032;SDS011;31720;52.638;9.216;2022-11-20T00:04:37;8.35;;;3.88;;
32032;SDS011;31720;52.638;9.216;2022-11-20T00:07:39;7.85;;;3.53;;
32032;SDS011;31720;52.638;9.216;2022-11-20T00:10:42;7.07;;;4.47;;
32032;SDS011;31720;52.638;9.216;2022-11-20T00:13:44;7.78;;;3.75;;
32032;SDS011;31720;52.638;9.216;2022-11-20T00:16:45;11.48;;;4.65;;
32032;SDS011;31720;52.638;9.216;2022-11-20T00:19:47;7.00;;;4.07;;
32032;SDS011;31720;52.638;9.216;2022-11-20T00:22:49;7.38;;;4.03;;
32032;SDS011;31720;52.638;9.216;2022-11-20T00:25:52;12.30;;;4.57;;
32032;SDS011;31720;52.638;9.216;2022-11-20T00:28:54;6.63;;;4.68;;
32032;SDS011;31720;52.638;9.216;2022-11-20T00:31:57;7.35;;;4.18;;
32032;SDS011;31720;52.638;9.216;2022-11-20T00:34:58;12.80;;;5.13;;
32032;SDS011;31720;52.638;9.216;2022-11-20T00:38:00;5.45;;;3.42;;
32032;SDS011;31720;52.638;9.216;2022-11-20T00:41:03;8.02;;;4.03;;
32032;SDS011;31720;52.638;9.216;2022-11-20T00:44:06;8.07;;;3.80;;
32032;SDS011;31720;52.638;9.216;2022-11-20T00:47:07;7.68;;;4.20;;
32032;SDS011;31720;52.638;9.216;2022-11-20T00:50:09;5.82;;;3.05;;
32032;SDS011;31720;52.638;9.216;2022-11-20T00:53:10;9.02;;;4.57;;
32032;SDS011;31720;52.638;9.216;2022-11-20T00:56:13;6.57;;;3.92;;
32032;SDS011;31720;52.638;9.216;2022-11-20T00:59:16;6.45;;;3.42;;
32032;SDS011;31720;52.638;9.216;2022-11-20T01:02:17;8.27;;;4.05;;
32032;SDS011;31720;52.638;9.216;2022-11-20T01:05:19;9.43;;;5.25;;
32032;SDS011;31720;52.638;9.216;2022-11-20T01:08:20;7.15;;;3.40;;
32032;SDS011;31720;52.638;9.216;2022-11-20T01:11:23;9.10;;;4.35;;
32032;SDS011;31720;52.638;9.216;2022-11-20T01:14:26;8.30;;;3.30;;
32032;SDS011;31720;52.638;9.216;2022-11-20T01:17:27;5.60;;;3.67;;
32032;SDS011;31720;52.638;9.216;2022-11-20T01:20:28;5.55;;;3.72;;
32032;SDS011;31720;52.638;9.216;2022-11-20T01:23:31;6.75;;;4.05;;
32032;SDS011;31720;52.638;9.216;2022-11-20T01:26:35;8.75;;;3.92;;
32032;SDS011;31720;52.638;9.216;2022-11-20T01:29:38;8.85;;;3.83;;
32032;SDS011;31720;52.638;9.216;2022-11-20T01:32:39;10.48;;;4.57;;
32032;SDS011;31720;52.638;9.216;2022-11-20T01:35:40;5.25;;;3.65;;
32032;SDS011;31720;52.638;9.216;2022-11-20T01:38:42;8.18;;;4.43;;
32032;SDS011;31720;52.638;9.216;2022-11-20T01:41:45;8.77;;;4.03;;
32032;SDS011;31720;52.638;9.216;2022-11-20T01:48:40;4.63;;;3.00;;
32032;SDS011;31720;52.638;9.216;2022-11-20T01:51:46;10.10;;;4.45;;
32032;SDS011;31720;52.638;9.216;2022-11-20T01:54:52;7.03;;;4.10;;
32032;SDS011;31720;52.638;9.216;2022-11-20T01:58:00;8.68;;;3.67;;
32032;SDS011;31720;52.638;9.216;2022-11-20T02:01:03;6.70;;;3.65;;
32032;SDS011;31720;52.638;9.216;2022-11-20T02:04:05;10.77;;;4.32;;
32032;SDS011;31720;52.638;9.216;2022-11-20T02:07:09;8.77;;;4.70;;
32032;SDS011;31720;52.638;9.216;2022-11-20T02:10:11;11.38;;;4.57;;
32032;SDS011;31720;52.638;9.216;2022-11-20T02:13:14;9.25;;;4.05;;
32032;SDS011;31720;52.638;9.216;2022-11-20T02:16:36;6.40;;;3.67;;
32032;SDS011;31720;52.638;9.216;2022-11-20T02:19:40;11.32;;;5.30;;
32032;SDS011;31720;52.638;9.216;2022-11-20T02:22:42;7.53;;;4.35;;
32032;SDS011;31720;52.638;9.216;2022-11-20T02:25:50;19.20;;;4.25;;
32032;SDS011;31720;52.638;9.216;2022-11-20T02:28:53;10.27;;;4.03;;
32032;SDS011;31720;52.638;9.216;2022-11-20T02:31:55;9.35;;;4.35;;
32032;SDS011;31720;52.638;9.216;2022-11-20T02:35:05;7.93;;;4.00;;
32032;SDS011;31720;52.638;9.216;2022-11-20T02:38:08;9.80;;;4.75;;
32032;SDS011;31720;52.638;9.216;2022-11-20T02:41:12;10.15;;;4.30;;
32032;SDS011;31720;52.638;9.216;2022-11-20T02:44:13;7.72;;;4.25;;
32032;SDS011;31720;52.638;9.216;2022-11-20T02:47:15;7.85;;;3.95;;
32032;SDS011;31720;52.638;9.216;2022-11-20T02:50:16;6.65;;;3.95;;
32032;SDS011;31720;52.638;9.216;2022-11-20T02:53:18;5.00;;;3.13;;
32032;SDS011;31720;52.638;9.216;2022-11-20T02:56:21;9.60;;;4.53;;
32032;SDS011;31720;52.638;9.216;2022-11-20T02:59:23;15.77;;;4.50;;
32032;SDS011;31720;52.638;9.216;2022-11-20T03:02:24;7.47;;;4.40;;
32032;SDS011;31720;52.638;9.216;2022-11-20T03:05:25;7.72;;;4.60;;
32032;SDS011;31720;52.638;9.216;2022-11-20T03:08:27;9.32;;;4.38;;
32032;SDS011;31720;52.638;9.216;2022-11-20T03:11:30;7.72;;;4.13;;
32032;SDS011;31720;52.638;9.216;2022-11-20T03:14:32;8.55;;;3.83;;
32032;SDS011;31720;52.638;9.216;2022-11-20T03:17:33;8.50;;;3.88;;
32032;SDS011;31720;52.638;9.216;2022-11-20T03:20:35;7.45;;;4.28;;
32032;SDS011;31720;52.638;9.216;2022-11-20T03:23:36;10.27;;;5.05;;
32032;SDS011;31720;52.638;9.216;2022-11-20T03:26:40;9.05;;;4.38;;
32032;SDS011;31720;52.638;9.216;2022-11-20T03:29:42;8.20;;;4.20;;
32032;SDS011;31720;52.638;9.216;2022-11-20T03:32:43;11.27;;;4.45;;
32032;SDS011;31720;52.638;9.216;2022-11-20T03:35:44;9.05;;;4.78;;
32032;SDS011;31720;52.638;9.216;2022-11-20T03:38:46;8.43;;;3.58;;
32032;SDS011;31720;52.638;9.216;2022-11-20T03:41:49;7.05;;;3.80;;
32032;SDS011;31720;52.638;9.216;2022-11-20T03:44:51;6.57;;;4.15;;
32032;SDS011;31720;52.638;9.216;2022-11-20T03:47:52;7.80;;;3.78;;
32032;SDS011;31720;52.638;9.216;2022-11-20T03:51:05;8.10;;;4.13;;
32032;SDS011;31720;52.638;9.216;2022-11-20T03:54:08;9.75;;;4.05;;
32032;SDS011;31720;52.638;9.216;2022-11-20T03:57:11;6.63;;;4.22;;
32032;SDS011;31720;52.638;9.216;2022-11-20T04:00:13;8.90;;;4.70;;
32032;SDS011;31720;52.638;9.216;2022-11-20T04:03:15;9.52;;;4.07;;
32032;SDS011;31720;52.638;9.216;2022-11-20T04:06:17;9.98;;;4.40;;
32032;SDS011;31720;52.638;9.216;2022-11-20T04:09:20;10.10;;;4.55;;
32032;SDS011;31720;52.638;9.216;2022-11-20T04:12:23;6.28;;;3.88;;
32032;SDS011;31720;52.638;9.216;2022-11-20T04:15:24;12.48;;;4.30;;
32032;SDS011;31720;52.638;9.216;2022-11-20T04:18:25;9.15;;;4.35;;
32032;SDS011;31720;52.638;9.216;2022-11-20T04:21:27;9.50;;;4.32;;
32032;SDS011;31720;52.638;9.216;2022-11-20T04:24:29;12.07;;;4.57;;
32032;SDS011;31720;52.638;9.216;2022-11-20T04:27:31;10.05;;;4.25;;
32032;SDS011;31720;52.638;9.216;2022-11-20T04:30:33;12.63;;;4.78;;
32032;SDS011;31720;52.638;9.216;2022-11-20T04:33:35;12.20;;;5.00;;
32032;SDS011;31720;52.638;9.216;2022-11-20T04:36:36;8.05;;;3.75;;
32032;SDS011;31720;52.638;9.216;2022-11-20T04:39:38;9.13;;;4.65;;
32032;SDS011;31720;52.638;9.216;2022-11-20T04:42:41;11.35;;;5.05;;
32032;SDS011;31720;52.638;9.216;2022-11-20T04:45:42;7.78;;;3.65;;
32032;SDS011;31720;52.638;9.216;2022-11-20T04:48:43;13.23;;;4.20;;
32032;SDS011;31720;52.638;9.216;2022-11-20T04:51:45;8.93;;;4.38;;
32032;SDS011;31720;52.638;9.216;2022-11-20T04:54:46;11.07;;;5.13;;
32032;SDS011;31720;52.638;9.216;2022-11-20T04:57:50;6.82;;;3.13;;
32032;SDS011;31720;52.638;9.216;2022-11-20T05:00:52;7.15;;;3.88;;
32032;SDS011;31720;52.638;9.216;2022-11-20T05:03:53;10.90;;;5.22;;
32032;SDS011;31720;52.638;9.216;2022-11-20T05:06:55;9.90;;;4.55;;
32032;SDS011;31720;52.638;9.216;2022-11-20T05:09:56;7.63;;;3.95;;
32032;SDS011;31720;52.638;9.216;2022-11-20T05:12:59;7.03;;;4.10;;
32032;SDS011;31720;52.638;9.216;2022-11-20T05:16:01;8.15;;;4.55;;
32032;SDS011;31720;52.638;9.216;2022-11-20T05:19:03;10.75;;;4.80;;
32032;SDS011;31720;52.638;9.216;2022-11-20T05:22:04;9.40;;;5.13;;
32032;SDS011;31720;52.638;9.216;2022-11-20T05:25:06;9.93;;;4.32;;
32032;SDS011;31720;52.638;9.216;2022-11-20T05:28:09;10.70;;;4.53;;
32032;SDS011;31720;52.638;9.216;2022-11-20T05:31:11;11.68;;;4.70;;
32032;SDS011;31720;52.638;9.216;2022-11-20T05:34:14;9.32;;;5.18;;
32032;SDS011;31720;52.638;9.216;2022-11-20T05:37:15;7.28;;;3.60;;
32032;SDS011;31720;52.638;9.216;2022-11-20T05:40:17;9.20;;;4.75;;
32032;SDS011;31720;52.638;9.216;2022-11-20T05:43:19;8.20;;;4.38;;
32032;SDS011;31720;52.638;9.216;2022-11-20T05:46:21;10.02;;;4.75;;
32032;SDS011;31720;52.638;9.216;2022-11-20T05:49:22;8.95;;;4.80;;
32032;SDS011;31720;52.638;9.216;2022-11-20T05:52:24;10.05;;;4.70;;
32032;SDS011;31720;52.638;9.216;2022-11-20T05:55:25;7.55;;;4.40;;
32032;SDS011;31720;52.638;9.216;2022-11-20T05:58:28;14.32;;;5.00;;
32032;SDS011;31720;52.638;9.216;2022-11-20T06:01:31;12.05;;;5.13;;
32032;SDS011;31720;52.638;9.216;2022-11-20T06:04:32;10.98;;;4.75;;
32032;SDS011;31720;52.638;9.216;2022-11-20T06:07:34;9.70;;;4.65;;
32032;SDS011;31720;52.638;9.216;2022-11-20T06:10:35;10.43;;;5.75;;
32032;SDS011;31720;52.638;9.216;2022-11-20T06:13:39;9.18;;;4.97;;
32032;SDS011;31720;52.638;9.216;2022-11-20T06:16:41;6.20;;;3.42;;
32032;SDS011;31720;52.638;9.216;2022-11-20T06:19:42;8.80;;;4.35;;
32032;SDS011;31720;52.638;9.216;2022-11-20T06:22:44;8.35;;;4.50;;
32032;SDS011;31720;52.638;9.216;2022-11-20T06:25:45;11.75;;;4.20;;
32032;SDS011;31720;52.638;9.216;2022-11-20T06:28:48;6.75;;;4.20;;
32032;SDS011;31720;52.638;9.216;2022-11-20T06:31:50;9.85;;;5.05;;
32032;SDS011;31720;52.638;9.216;2022-11-20T06:34:51;5.90;;;3.83;;
32032;SDS011;31720;52.638;9.216;2022-11-20T06:37:53;6.55;;;4.40;;
32032;SDS011;31720;52.638;9.216;2022-11-20T06:40:54;11.15;;;4.40;;
32032;SDS011;31720;52.638;9.216;2022-11-20T06:43:57;8.13;;;3.90;;
32032;SDS011;31720;52.638;9.216;2022-11-20T06:46:59;10.63;;;3.90;;
32032;SDS011;31720;52.638;9.216;2022-11-20T06:50:01;8.02;;;4.53;;
32032;SDS011;31720;52.638;9.216;2022-11-20T06:53:02;9.30;;;4.07;;
32032;SDS011;31720;52.638;9.216;2022-11-20T06:56:04;9.15;;;5.07;;
32032;SDS011;31720;52.638;9.216;2022-11-20T06:59:08;6.55;;;3.85;;
32032;SDS011;31720;52.638;9.216;2022-11-20T07:02:10;10.70;;;5.40;;
32032;SDS011;31720;52.638;9.216;2022-11-20T07:05:12;8.55;;;4.18;;
32032;SDS011;31720;52.638;9.216;2022-11-20T07:08:14;6.47;;;4.15;;
32032;SDS011;31720;52.638;9.216;2022-11-20T07:11:15;12.27;;;4.53;;
32032;SDS011;31720;52.638;9.216;2022-11-20T07:14:18;8.73;;;4.43;;
32032;SDS011;31720;52.638;9.216;2022-11-20T07:17:19;12.55;;;4.82;;
32032;SDS011;31720;52.638;9.216;2022-11-20T07:20:21;9.30;;;5.05;;
32032;SDS011;31720;52.638;9.216;2022-11-20T07:23:22;5.32;;;3.60;;
32032;SDS011;31720;52.638;9.216;2022-11-20T07:26:23;8.43;;;4.50;;
32032;SDS011;31720;52.638;9.216;2022-11-20T07:29:26;6.68;;;4.13;;
32032;SDS011;31720;52.638;9.216;2022-11-20T07:32:28;7.95;;;4.53;;
32032;SDS011;31720;52.638;9.216;2022-11-20T07:35:29;10.38;;;5.13;;
32032;SDS011;31720;52.638;9.216;2022-11-20T07:38:30;7.32;;;4.18;;
32032;SDS011;31720;52.638;9.216;2022-11-20T07:41:32;9.38;;;4.95;;
32032;SDS011;31720;52.638;9.216;2022-11-20T07:44:35;10.55;;;4.38;;
32032;SDS011;31720;52.638;9.216;2022-11-20T07:47:36;9.73;;;4.25;;
32032;SDS011;31720;52.638;9.216;2022-11-20T07:50:38;7.40;;;4.00;;
32032;SDS011;31720;52.638;9.216;2022-11-20T07:53:39;9.82;;;4.95;;
32032;SDS011;31720;52.638;9.216;2022-11-20T07:56:40;11.77;;;4.82;;
32032;SDS011;31720;52.638;9.216;2022-11-20T07:59:43;8.82;;;4.50;;
32032;SDS011;31720;52.638;9.216;2022-11-20T08:02:46;6.70;;;3.55;;
32032;SDS011;31720;52.638;9.216;2022-11-20T08:05:47;5.50;;;3.13;;
32032;SDS011;31720;52.638;9.216;2022-11-20T08:08:48;8.23;;;3.78;;
32032;SDS011;31720;52.638;9.216;2022-11-20T08:11:50;9.63;;;3.85;;
32032;SDS011;31720;52.638;9.216;2022-11-20T08:15:10;8.85;;;4.30;;
32032;SDS011;31720;52.638;9.216;2022-11-20T08:18:12;6.47;;;3.58;;
32032;SDS011;31720;52.638;9.216;2022-11-20T08:21:13;8.23;;;4.78;;
32032;SDS011;31720;52.638;9.216;2022-11-20T08:24:14;10.68;;;4.25;;
32032;SDS011;31720;52.638;9.216;2022-11-20T08:27:16;8.85;;;4.40;;
32032;SDS011;31720;52.638;9.216;2022-11-20T08:30:19;10.75;;;4.45;;
32032;SDS011;31720;52.638;9.216;2022-11-20T08:33:20;7.32;;;4.53;;
32032;SDS011;31720;52.638;9.216;2022-11-20T08:36:22;11.93;;;5.45;;
32032;SDS011;31720;52.638;9.216;2022-11-20T08:39:24;10.05;;;5.22;;
32032;SDS011;31720;52.638;9.216;2022-11-20T08:42:26;8.63;;;3.63;;
32032;SDS011;31720;52.638;9.216;2022-11-20T08:45:29;10.80;;;4.75;;
32032;SDS011;31720;52.638;9.216;2022-11-20T08:48:30;11.13;;;5.50;;
32032;SDS011;31720;52.638;9.216;2022-11-20T08:51:31;12.38;;;5.03;;
32032;SDS011;31720;52.638;9.216;2022-11-20T08:54:33;17.95;;;5.22;;
32032;SDS011;31720;52.638;9.216;2022-11-20T08:57:35;8.55;;;4.80;;
32032;SDS011;31720;52.638;9.216;2022-11-20T09:00:38;13.85;;;4.38;;
32032;SDS011;31720;52.638;9.216;2022-11-20T09:03:40;7.75;;;4.38;;
32032;SDS011;31720;52.638;9.216;2022-11-20T09:06:41;9.18;;;4.85;;
32032;SDS011;31720;52.638;9.216;2022-11-20T09:09:43;10.32;;;5.43;;
32032;SDS011;31720;52.638;9.216;2022-11-20T09:12:44;13.77;;;6.25;;
32032;SDS011;31720;52.638;9.216;2022-11-20T09:15:53;11.90;;;5.53;;
32032;SDS011;31720;52.638;9.216;2022-11-20T09:18:56;13.57;;;5.25;;
32032;SDS011;31720;52.638;9.216;2022-11-20T09:21:57;9.35;;;5.50;;
32032;SDS011;31720;52.638;9.216;2022-11-20T09:24:59;18.10;;;5.13;;
32032;SDS011;31720;52.638;9.216;2022-11-20T09:28:01;11.55;;;5.78;;
32032;SDS011;31720;52.638;9.216;2022-11-20T09:31:05;11.75;;;4.43;;
32032;SDS011;31720;52.638;9.216;2022-11-20T09:34:07;8.27;;;4.47;;
32032;SDS011;31720;52.638;9.216;2022-11-20T09:37:09;11.18;;;4.00;;
32032;SDS011;31720;52.638;9.216;2022-11-20T09:40:16;11.18;;;4.88;;
32032;SDS011;31720;52.638;9.216;2022-11-20T09:43:21;13.32;;;5.80;;
32032;SDS011;31720;52.638;9.216;2022-11-20T09:46:33;9.68;;;5.25;;
32032;SDS011;31720;52.638;9.216;2022-11-20T09:49:50;11.15;;;4.93;;
32032;SDS011;31720;52.638;9.216;2022-11-20T09:56:21;8.05;;;4.72;;
32032;SDS011;31720;52.638;9.216;2022-11-20T09:59:36;9.20;;;4.35;;
32032;SDS011;31720;52.638;9.216;2022-11-20T10:02:44;8.23;;;4.50;;
32032;SDS011;31720;52.638;9.216;2022-11-20T10:05:50;11.43;;;4.10;;
32032;SDS011;31720;52.638;9.216;2022-11-20T10:08:55;10.95;;;4.88;;
32032;SDS011;31720;52.638;9.216;2022-11-20T10:12:09;7.93;;;4.07;;
32032;SDS011;31720;52.638;9.216;2022-11-20T10:15:21;9.50;;;4.68;;
32032;SDS011;31720;52.638;9.216;2022-11-20T10:18:37;9.98;;;3.95;;
32032;SDS011;31720;52.638;9.216;2022-11-20T10:21:51;9.07;;;4.43;;
32032;SDS011;31720;52.638;9.216;2022-11-20T10:25:00;9.52;;;4.90;;
32032;SDS011;31720;52.638;9.216;2022-11-20T10:28:21;10.63;;;5.20;;
32032;SDS011;31720;52.638;9.216;2022-11-20T10:31:31;10.95;;;6.47;;
32032;SDS011;31720;52.638;9.216;2022-11-20T10:34:38;10.40;;;4.95;;
32032;SDS011;31720;52.638;9.216;2022-11-20T10:37:49;10.63;;;5.45;;
32032;SDS011;31720;52.638;9.216;2022-11-20T10:40:54;8.43;;;4.45;;
32032;SDS011;31720;52.638;9.216;2022-11-20T10:44:15;9.20;;;4.78;;
32032;SDS011;31720;52.638;9.216;2022-11-20T10:47:38;9.98;;;5.07;;
32032;SDS011;31720;52.638;9.216;2022-11-20T10:50:46;7.45;;;4.40;;
32032;SDS011;31720;52.638;9.216;2022-11-20T10:54:03;12.93;;;5.38;;
32032;SDS011;31720;52.638;9.216;2022-11-20T10:57:17;8.30;;;4.50;;
32032;SDS011;31720;52.638;9.216;2022-11-20T11:00:27;7.80;;;3.90;;
32032;SDS011;31720;52.638;9.216;2022-11-20T11:03:31;10.55;;;4.97;;
32032;SDS011;31720;52.638;9.216;2022-11-20T11:06:35;8.55;;;4.45;;
32032;SDS011;31720;52.638;9.216;2022-11-20T11:09:42;8.98;;;4.75;;
32032;SDS011;31720;52.638;9.216;2022-11-20T11:12:47;9.27;;;4.72;;
32032;SDS011;31720;52.638;9.216;2022-11-20T11:15:49;8.73;;;4.53;;
32032;SDS011;31720;52.638;9.216;2022-11-20T11:18:51;5.30;;;2.80;;
32032;SDS011;31720;52.638;9.216;2022-11-20T11:22:05;6.65;;;4.00;;
32032;SDS011;31720;52.638;9.216;2022-11-20T11:25:25;7.13;;;3.38;;
32032;SDS011;31720;52.638;9.216;2022-11-20T11:28:28;6.47;;;3.63;;
32032;SDS011;31720;52.638;9.216;2022-11-20T11:31:30;9.88;;;4.68;;
32032;SDS011;31720;52.638;9.216;2022-11-20T11:34:32;5.90;;;3.85;;
32032;SDS011;31720;52.638;9.216;2022-11-20T11:37:36;12.65;;;4.32;;
32032;SDS011;31720;52.638;9.216;2022-11-20T11:40:39;11.00;;;5.25;;
32032;SDS011;31720;52.638;9.216;2022-11-20T11:43:48;7.72;;;4.93;;
32032;SDS011;31720;52.638;9.216;2022-11-20T11:47:11;10.98;;;4.70;;
32032;SDS011;31720;52.638;9.216;2022-11-20T11:50:22;13.77;;;6.32;;
32032;SDS011;31720;52.638;9.216;2022-11-20T11:53:26;9.77;;;5.32;;
32032;SDS011;31720;52.638;9.216;2022-11-20T11:56:29;9.70;;;4.85;;
32032;SDS011;31720;52.638;9.216;2022-11-20T11:59:37;10.02;;;5.75;;
32032;SDS011;31720;52.638;9.216;2022-11-20T12:02:51;10.82;;;4.70;;
32032;SDS011;31720;52.638;9.216;2022-11-20T12:05:59;11.68;;;5.97;;
32032;SDS011;31720;52.638;9.216;2022-11-20T12:09:10;6.85;;;4.28;;
32032;SDS011;31720;52.638;9.216;2022-11-20T12:12:13;10.65;;;5.60;;
32032;SDS011;31720;52.638;9.216;2022-11-20T12:15:22;8.77;;;5.40;;
32032;SDS011;31720;52.638;9.216;2022-11-20T12:18:27;11.07;;;5.15;;
32032;SDS011;31720;52.638;9.216;2022-11-20T12:21:31;8.30;;;4.18;;
32032;SDS011;31720;52.638;9.216;2022-11-20T12:24:51;9.65;;;4.88;;
32032;SDS011;31720;52.638;9.216;2022-11-20T12:28:01;11.50;;;4.72;;
32032;SDS011;31720;52.638;9.216;2022-11-20T12:31:20;13.40;;;6.30;;
32032;SDS011;31720;52.638;9.216;2022-11-20T12:34:43;9.43;;;5.15;;
32032;SDS011;31720;52.638;9.216;2022-11-20T12:37:55;6.78;;;4.13;;
32032;SDS011;31720;52.638;9.216;2022-11-20T12:41:13;14.13;;;5.45;;
32032;SDS011;31720;52.638;9.216;2022-11-20T12:44:39;10.38;;;5.00;;
32032;SDS011;31720;52.638;9.216;2022-11-20T12:48:22;10.95;;;4.78;;
32032;SDS011;31720;52.638;9.216;2022-11-20T12:51:44;9.00;;;4.63;;
32032;SDS011;31720;52.638;9.216;2022-11-20T12:55:00;9.77;;;4.68;;
32032;SDS011;31720;52.638;9.216;2022-11-20T12:58:20;9.32;;;4.93;;
32032;SDS011;31720;52.638;9.216;2022-11-20T13:01:29;8.77;;;4.53;;
32032;SDS011;31720;52.638;9.216;2022-11-20T13:04:48;10.07;;;5.32;;
32032;SDS011;31720;52.638;9.216;2022-11-20T13:08:00;16.40;;;6.88;;
32032;SDS011;31720;52.638;9.216;2022-11-20T13:11:05;9.77;;;5.35;;
32032;SDS011;31720;52.638;9.216;2022-11-20T13:14:19;14.20;;;5.90;;
32032;SDS011;31720;52.638;9.216;2022-11-20T13:17:33;7.47;;;4.03;;
32032;SDS011;31720;52.638;9.216;2022-11-20T13:20:42;12.23;;;4.90;;
32032;SDS011;31720;52.638;9.216;2022-11-20T13:23:45;12.32;;;5.22;;
32032;SDS011;31720;52.638;9.216;2022-11-20T13:26:46;9.38;;;4.20;;
32032;SDS011;31720;52.638;9.216;2022-11-20T13:30:00;8.00;;;5.18;;
32032;SDS011;31720;52.638;9.216;2022-11-20T13:33:05;7.68;;;4.05;;
32032;SDS011;31720;52.638;9.216;2022-11-20T13:36:20;6.78;;;4.05;;
32032;SDS011;31720;52.638;9.216;2022-11-20T13:39:24;13.57;;;5.45;;
32032;SDS011;31720;52.638;9.216;2022-11-20T13:42:27;8.15;;;4.38;;
32032;SDS011;31720;52.638;9.216;2022-11-20T13:45:30;7.13;;;3.55;;
32032;SDS011;31720;52.638;9.216;2022-11-20T13:48:34;7.68;;;3.70;;
32032;SDS011;31720;52.638;9.216;2022-11-20T13:51:42;5.65;;;3.35;;
32032;SDS011;31720;52.638;9.216;2022-11-20T13:54:52;7.00;;;4.15;;
32032;SDS011;31720;52.638;9.216;2022-11-20T13:58:06;10.63;;;5.25;;
32032;SDS011;31720;52.638;9.216;2022-11-20T14:01:23;7.95;;;4.18;;
32032;SDS011;31720;52.638;9.216;2022-11-20T14:04:26;8.13;;;4.20;;
32032;SDS011;31720;52.638;9.216;2022-11-20T14:07:32;13.00;;;4.85;;
32032;SDS011;31720;52.638;9.216;2022-11-20T14:10:38;31.00;;;10.68;;
32032;SDS011;31720;52.638;9.216;2022-11-20T14:13:39;31.35;;;8.18;;
32032;SDS011;31720;52.638;9.216;2022-11-20T14:16:53;12.75;;;5.68;;
32032;SDS011;31720;52.638;9.216;2022-11-20T14:20:06;10.68;;;5.30;;
32032;SDS011;31720;52.638;9.216;2022-11-20T14:23:23;9.20;;;4.90;;
32032;SDS011;31720;52.638;9.216;2022-11-20T14:26:26;11.02;;;6.20;;
32032;SDS011;31720;52.638;9.216;2022-11-20T14:29:28;8.20;;;4.60;;
32032;SDS011;31720;52.638;9.216;2022-11-20T14:32:36;10.43;;;4.53;;
32032;SDS011;31720;52.638;9.216;2022-11-20T14:35:44;8.13;;;4.15;;
32032;SDS011;31720;52.638;9.216;2022-11-20T14:38:46;11.40;;;6.20;;
32032;SDS011;31720;52.638;9.216;2022-11-20T14:41:50;8.65;;;4.50;;
32032;SDS011;31720;52.638;9.216;2022-11-20T14:44:52;10.00;;;5.75;;
32032;SDS011;31720;52.638;9.216;2022-11-20T14:47:58;11.23;;;5.38;;
32032;SDS011;31720;52.638;9.216;2022-11-20T14:51:00;11.35;;;4.75;;
32032;SDS011;31720;52.638;9.216;2022-11-20T14:54:09;12.00;;;6.55;;
32032;SDS011;31720;52.638;9.216;2022-11-20T14:57:20;15.93;;;5.57;;
32032;SDS011;31720;52.638;9.216;2022-11-20T15:00:23;14.20;;;6.47;;
32032;SDS011;31720;52.638;9.216;2022-11-20T15:03:31;15.73;;;6.82;;
32032;SDS011;31720;52.638;9.216;2022-11-20T15:06:34;12.13;;;5.38;;
32032;SDS011;31720;52.638;9.216;2022-11-20T15:09:35;9.60;;;4.70;;
32032;SDS011;31720;52.638;9.216;2022-11-20T15:12:37;11.55;;;5.80;;
32032;SDS011;31720;52.638;9.216;2022-11-20T15:15:42;9.60;;;5.50;;
32032;SDS011;31720;52.638;9.216;2022-11-20T15:18:48;16.95;;;6.18;;
32032;SDS011;31720;52.638;9.216;2022-11-20T15:21:50;15.05;;;6.40;;
32032;SDS011;31720;52.638;9.216;2022-11-20T15:24:52;12.18;;;5.70;;
32032;SDS011;31720;52.638;9.216;2022-11-20T15:27:54;9.63;;;5.72;;
32032;SDS011;31720;52.638;9.216;2022-11-20T15:30:57;8.88;;;4.97;;
32032;SDS011;31720;52.638;9.216;2022-11-20T15:34:00;11.10;;;6.38;;
32032;SDS011;31720;52.638;9.216;2022-11-20T15:37:02;10.80;;;5.13;;
32032;SDS011;31720;52.638;9.216;2022-11-20T15:40:04;12.80;;;5.78;;
32032;SDS011;31720;52.638;9.216;2022-11-20T15:43:06;7.55;;;3.95;;
32032;SDS011;31720;52.638;9.216;2022-11-20T15:46:09;9.25;;;4.95;;
32032;SDS011;31720;52.638;9.216;2022-11-20T15:49:15;8.73;;;4.90;;
32032;SDS011;31720;52.638;9.216;2022-11-20T15:52:18;13.45;;;5.63;;
32032;SDS011;31720;52.638;9.216;2022-11-20T15:55:20;14.18;;;7.18;;
32032;SDS011;31720;52.638;9.216;2022-11-20T15:58:21;10.02;;;5.43;;
32032;SDS011;31720;52.638;9.216;2022-11-20T16:01:24;8.63;;;4.85;;
32032;SDS011;31720;52.638;9.216;2022-11-20T16:04:26;9.77;;;5.68;;
32032;SDS011;31720;52.638;9.216;2022-11-20T16:07:28;11.57;;;6.18;;
32032;SDS011;31720;52.638;9.216;2022-11-20T16:10:29;9.25;;;5.47;;
32032;SDS011;31720;52.638;9.216;2022-11-20T16:13:31;9.52;;;5.35;;
32032;SDS011;31720;52.638;9.216;2022-11-20T16:16:50;13.20;;;5.53;;
32032;SDS011;31720;52.638;9.216;2022-11-20T16:19:53;9.70;;;5.40;;
32032;SDS011;31720;52.638;9.216;2022-11-20T16:22:55;10.48;;;6.00;;
32032;SDS011;31720;52.638;9.216;2022-11-20T16:25:56;17.30;;;7.53;;
32032;SDS011;31720;52.638;9.216;2022-11-20T16:28:58;10.85;;;6.35;;
32032;SDS011;31720;52.638;9.216;2022-11-20T16:32:00;14.35;;;6.05;;
32032;SDS011;31720;52.638;9.216;2022-11-20T16:35:03;14.45;;;6.53;;
32032;SDS011;31720;52.638;9.216;2022-11-20T16:38:07;19.73;;;8.32;;
32032;SDS011;31720;52.638;9.216;2022-11-20T16:41:08;17.38;;;8.32;;
32032;SDS011;31720;52.638;9.216;2022-11-20T16:44:13;15.75;;;8.05;;
32032;SDS011;31720;52.638;9.216;2022-11-20T16:47:14;18.73;;;7.45;;
32032;SDS011;31720;52.638;9.216;2022-11-20T16:50:17;18.95;;;7.95;;
32032;SDS011;31720;52.638;9.216;2022-11-20T16:53:19;16.08;;;7.43;;
32032;SDS011;31720;52.638;9.216;2022-11-20T16:56:22;17.00;;;8.25;;
32032;SDS011;31720;52.638;9.216;2022-11-20T16:59:25;18.35;;;7.70;;
32032;SDS011;31720;52.638;9.216;2022-11-20T17:02:26;18.25;;;7.82;;
32032;SDS011;31720;52.638;9.216;2022-11-20T17:05:29;12.25;;;5.82;;
32032;SDS011;31720;52.638;9.216;2022-11-20T17:08:31;20.55;;;8.93;;
32032;SDS011;31720;52.638;9.216;2022-11-20T17:11:32;18.48;;;8.20;;
32032;SDS011;31720;52.638;9.216;2022-11-20T17:14:34;21.75;;;9.43;;
32032;SDS011;31720;52.638;9.216;2022-11-20T17:17:35;21.02;;;8.77;;
32032;SDS011;31720;52.638;9.216;2022-11-20T17:20:38;10.93;;;6.53;;
32032;SDS011;31720;52.638;9.216;2022-11-20T17:23:40;18.70;;;8.25;;
32032;SDS011;31720;52.638;9.216;2022-11-20T17:26:43;14.98;;;7.22;;
32032;SDS011;31720;52.638;9.216;2022-11-20T17:29:45;10.75;;;6.35;;
32032;SDS011;31720;52.638;9.216;2022-11-20T17:32:46;16.58;;;8.27;;
32032;SDS011;31720;52.638;9.216;2022-11-20T17:35:49;16.08;;;8.00;;
32032;SDS011;31720;52.638;9.216;2022-11-20T17:38:51;19.95;;;8.95;;
32032;SDS011;31720;52.638;9.216;2022-11-20T17:41:52;15.98;;;7.82;;
32032;SDS011;31720;52.638;9.216;2022-11-20T17:45:07;12.65;;;6.97;;
32032;SDS011;31720;52.638;9.216;2022-11-20T17:48:09;18.08;;;8.27;;
32032;SDS011;31720;52.638;9.216;2022-11-20T17:51:13;11.27;;;7.80;;
32032;SDS011;31720;52.638;9.216;2022-11-20T17:54:16;14.82;;;7.40;;
32032;SDS011;31720;52.638;9.216;2022-11-20T17:57:17;11.93;;;6.88;;
32032;SDS011;31720;52.638;9.216;2022-11-20T18:00:36;13.88;;;7.38;;
32032;SDS011;31720;52.638;9.216;2022-11-20T18:03:37;19.67;;;8.25;;
32032;SDS011;31720;52.638;9.216;2022-11-20T18:06:40;12.90;;;6.18;;
32032;SDS011;31720;52.638;9.216;2022-11-20T18:09:42;12.68;;;6.53;;
32032;SDS011;31720;52.638;9.216;2022-11-20T18:12:44;12.32;;;6.05;;
32032;SDS011;31720;52.638;9.216;2022-11-20T18:15:45;13.43;;;5.30;;
32032;SDS011;31720;52.638;9.216;2022-11-20T18:18:47;10.25;;;6.00;;
32032;SDS011;31720;52.638;9.216;2022-11-20T18:21:49;7.65;;;4.45;;
32032;SDS011;31720;52.638;9.216;2022-11-20T18:24:51;12.43;;;5.35;;
32032;SDS011;31720;52.638;9.216;2022-11-20T18:27:52;15.93;;;6.88;;
32032;SDS011;31720;52.638;9.216;2022-11-20T18:30:54;12.90;;;5.55;;